IPN weather

Usiminas Airport
Ipatinga, Minas Gerais, Brazil

Public forecast

Using degrees Celsius for public forecast. Weather courtesy of forecast.io.

METAR (pilot weather report)

Report is more than 6 hours old.

Retrieved 2019/06/16 22:00 UTC (12 hours ago):

SBIP 162200Z 30002KT CAVOK 19/16 Q1021

TAF (pilot weather forecast)

Forecast is more than 12 hours old.

Closest forecast is Serro Airport, 74.2 nm (137.4 km) NW. Retrieved 2009/11/03 09:30 UTC (10 years ago):

TAF SNSO 030930Z 0312/0418 06010G20KT CAVOK TEMPO 0315/0319 5000 HZ